createdAt,value
2023-12-22T00:00:42.025Z,0.15
2023-12-22T00:01:42.063Z,0.18
2023-12-22T00:02:42.028Z,0.19
2023-12-22T00:03:42.649Z,0.15
2023-12-22T00:04:42.087Z,0.15
2023-12-22T00:05:42.100Z,0.2
2023-12-22T00:06:42.102Z,0.19
2023-12-22T00:07:42.146Z,0.2
2023-12-22T00:08:42.140Z,0.17
2023-12-22T00:09:42.327Z,0.22
2023-12-22T00:10:42.160Z,0.21
2023-12-22T00:11:42.688Z,0.21
2023-12-22T00:12:42.758Z,0.19
2023-12-22T00:13:42.770Z,0.22
2023-12-22T00:14:42.733Z,0.18
2023-12-22T00:15:42.731Z,0.16
2023-12-22T00:16:42.778Z,0.14
2023-12-22T00:17:42.773Z,0.14
2023-12-22T00:18:42.937Z,0.12
2023-12-22T00:19:43.107Z,0.13
2023-12-22T00:20:42.896Z,0.16
2023-12-22T00:21:42.902Z,0.11
2023-12-22T00:22:42.988Z,0.15
2023-12-22T00:23:42.892Z,0.18
2023-12-22T00:24:42.895Z,0.17
2023-12-22T00:25:43.004Z,0.15
2023-12-22T00:26:42.909Z,0.14
2023-12-22T00:27:42.978Z,0.19
2023-12-22T00:28:43.016Z,0.21
2023-12-22T00:29:43.593Z,0.16
2023-12-22T00:30:43.569Z,0.18
2023-12-22T00:31:43.631Z,0.18
2023-12-22T00:32:43.726Z,0.15
2023-12-22T00:33:43.682Z,0.21
2023-12-22T00:34:43.628Z,0.15
2023-12-22T00:35:43.660Z,0.13
2023-12-22T00:36:43.645Z,0.15
2023-12-22T00:37:43.741Z,0.18
2023-12-22T00:38:43.691Z,0.18
2023-12-22T00:39:43.700Z,0.12
2023-12-22T00:40:43.818Z,0.12
2023-12-22T00:41:43.730Z,0.16
2023-12-22T00:42:43.765Z,0.16
2023-12-22T00:43:43.815Z,0.17
2023-12-22T00:44:43.776Z,0.2
2023-12-22T00:45:43.804Z,0.16
2023-12-22T00:46:43.900Z,0.17
2023-12-22T00:47:43.837Z,0.16
2023-12-22T00:48:43.852Z,0.15
2023-12-22T00:49:43.903Z,0.19
2023-12-22T00:50:43.889Z,0.15
2023-12-22T00:51:43.890Z,0.18
2023-12-22T00:52:43.980Z,0.18
2023-12-22T00:53:43.985Z,0.16
2023-12-22T00:54:43.958Z,0.19
2023-12-22T00:55:44.538Z,0.16
2023-12-22T00:56:44.471Z,0.18
2023-12-22T00:57:44.541Z,0.18
2023-12-22T00:58:47.766Z,0.15
2023-12-22T00:59:47.952Z,0.16
2023-12-22T01:00:48.118Z,0.15
2023-12-22T01:01:48.059Z,0.16
2023-12-22T01:02:47.997Z,0.15
2023-12-22T01:03:48.007Z,0.18
2023-12-22T01:04:48.245Z,0.18
2023-12-22T01:05:48.212Z,0.18
2023-12-22T01:06:48.092Z,0.17
2023-12-22T01:07:48.284Z,0.19
2023-12-22T01:08:48.114Z,0.18
2023-12-22T01:09:48.125Z,0.18
2023-12-22T01:10:48.339Z,0.19
2023-12-22T01:11:48.166Z,0.21
2023-12-22T01:12:48.616Z,0.19
2023-12-22T01:13:48.319Z,0.2
2023-12-22T01:14:48.201Z,0.21
2023-12-22T01:15:48.206Z,0.19
2023-12-22T01:16:48.257Z,0.16
2023-12-22T01:17:48.565Z,0.2
2023-12-22T01:18:48.334Z,0.2
2023-12-22T01:19:48.291Z,0.21
2023-12-22T01:20:48.301Z,0.22
2023-12-22T01:21:50.975Z,0.22
2023-12-22T01:22:48.838Z,0.21
2023-12-22T01:23:48.744Z,0.2
2023-12-22T01:24:48.767Z,0.18
2023-12-22T01:25:48.821Z,0.2
2023-12-22T01:26:48.807Z,0.21
2023-12-22T01:27:49.002Z,0.19
2023-12-22T01:28:48.844Z,0.21
2023-12-22T01:29:48.846Z,0.2
2023-12-22T01:30:48.872Z,0.22
2023-12-22T01:31:48.968Z,0.17
2023-12-22T01:32:48.915Z,0.21
2023-12-22T01:33:48.959Z,0.22
2023-12-22T01:34:48.927Z,0.22
2023-12-22T01:35:48.950Z,0.21
2023-12-22T01:36:49.001Z,0.22
2023-12-22T01:37:49.206Z,0.21
2023-12-22T01:38:49.013Z,0.22
2023-12-22T01:39:49.478Z,0.18
2023-12-22T01:40:49.503Z,0.19
2023-12-22T01:41:49.524Z,0.19
2023-12-22T01:42:49.512Z,0.17
2023-12-22T01:43:49.520Z,0.21
2023-12-22T01:44:49.512Z,0.22
2023-12-22T01:45:51.052Z,0.24
2023-12-22T01:46:50.751Z,0.22
2023-12-22T01:47:50.036Z,0.2
2023-12-22T01:48:49.684Z,0.21
2023-12-22T01:49:49.647Z,0.22
2023-12-22T01:50:50.565Z,0.2
2023-12-22T01:51:50.291Z,0.21
2023-12-22T01:52:49.697Z,0.21
2023-12-22T01:53:49.772Z,0.24
2023-12-22T01:54:50.592Z,0.23
2023-12-22T01:55:50.979Z,0.22
2023-12-22T01:56:49.895Z,0.22
2023-12-22T01:57:50.327Z,0.28
2023-12-22T01:58:51.665Z,0.26
2023-12-22T01:59:50.512Z,0.27
2023-12-22T02:00:50.036Z,0.23
2023-12-22T02:01:49.949Z,0.22
2023-12-22T02:02:49.880Z,0.23
2023-12-22T02:03:51.582Z,0.21
2023-12-22T02:04:50.063Z,0.21
2023-12-22T02:05:50.322Z,0.24
2023-12-22T02:06:50.061Z,0.21
2023-12-22T02:07:50.346Z,0.23
2023-12-22T02:08:50.315Z,0.22
2023-12-22T02:09:49.954Z,0.21
2023-12-22T02:10:49.993Z,0.24
2023-12-22T02:11:49.991Z,0.21
2023-12-22T02:12:50.684Z,0.23
2023-12-22T02:13:50.422Z,0.21
2023-12-22T02:14:50.036Z,0.23
2023-12-22T02:15:54.247Z,0.23
2023-12-22T02:16:54.896Z,0.25
2023-12-22T02:18:56.263Z,0.27
2023-12-22T02:19:55.693Z,0.26
2023-12-22T02:20:54.878Z,0.28
2023-12-22T02:22:56.428Z,0.24
2023-12-22T02:23:56.239Z,0.24
2023-12-22T02:24:56.321Z,0.26
2023-12-22T02:26:09.223Z,0.23
2023-12-22T02:27:04.730Z,0.27
2023-12-22T02:28:04.657Z,0.27
2023-12-22T02:29:01.775Z,0.24
2023-12-22T02:32:08.454Z,0.21
2023-12-22T02:33:08.440Z,0.23
2023-12-22T02:34:08.468Z,0.26
2023-12-22T02:35:10.033Z,0.28
2023-12-22T02:36:08.523Z,0.27
2023-12-22T02:37:08.947Z,0.27
2023-12-22T02:38:07.785Z,0.26
2023-12-22T02:39:08.259Z,0.28
2023-12-22T02:40:08.200Z,0.3
2023-12-22T02:41:07.785Z,0.28
2023-12-22T02:42:08.138Z,0.28
2023-12-22T02:43:07.718Z,0.3
2023-12-22T02:44:07.604Z,0.3
2023-12-22T02:45:13.439Z,0.34
2023-12-22T02:46:15.673Z,0.29
2023-12-22T02:47:12.446Z,0.31
2023-12-22T02:48:12.635Z,0.33
2023-12-22T02:49:12.558Z,0.35
2023-12-22T02:50:14.037Z,0.28
2023-12-22T02:51:12.544Z,0.32
2023-12-22T02:52:12.538Z,0.28
2023-12-22T02:53:12.717Z,0.3
2023-12-22T02:54:12.565Z,0.31
2023-12-22T02:55:12.829Z,0.31
2023-12-22T02:56:12.580Z,0.31
2023-12-22T02:57:12.578Z,0.29
2023-12-22T02:58:15.509Z,0.33
2023-12-22T02:59:12.758Z,0.33
2023-12-22T03:00:12.860Z,0.31
2023-12-22T03:01:12.640Z,0.29
2023-12-22T03:02:12.678Z,0.31
2023-12-22T03:03:12.713Z,0.28
2023-12-22T03:04:12.716Z,0.29
2023-12-22T03:05:12.803Z,0.31
2023-12-22T03:06:12.763Z,0.32
2023-12-22T03:07:13.177Z,0.28
2023-12-22T03:08:12.798Z,0.28
2023-12-22T03:09:12.820Z,0.33
2023-12-22T03:10:12.842Z,0.31
2023-12-22T03:11:12.817Z,0.34
2023-12-22T03:12:12.914Z,0.33
2023-12-22T03:13:13.489Z,0.32
2023-12-22T03:14:12.887Z,0.33
2023-12-22T03:15:12.927Z,0.32
2023-12-22T03:16:13.065Z,0.3
2023-12-22T03:17:13.082Z,0.29
2023-12-22T03:18:13.039Z,0.3
2023-12-22T03:19:13.014Z,0.29
2023-12-22T03:20:13.054Z,0.29
2023-12-22T03:21:19.192Z,0.28
2023-12-22T03:22:15.441Z,0.27
2023-12-22T03:23:15.424Z,0.3
2023-12-22T03:24:15.441Z,0.29
2023-12-22T03:25:15.509Z,0.31
2023-12-22T03:26:15.458Z,0.29
2023-12-22T03:27:15.473Z,0.3
2023-12-22T03:28:15.621Z,0.31
2023-12-22T03:29:15.708Z,0.3
2023-12-22T03:30:15.748Z,0.3
2023-12-22T03:31:15.530Z,0.29
2023-12-22T03:32:15.524Z,0.3
2023-12-22T03:33:15.605Z,0.28
2023-12-22T03:34:15.619Z,0.29
2023-12-22T03:35:15.581Z,0.27
2023-12-22T03:36:15.589Z,0.31
2023-12-22T03:37:15.642Z,0.31
2023-12-22T03:38:15.617Z,0.32
2023-12-22T03:39:18.420Z,0.3
2023-12-22T03:40:15.837Z,0.3
2023-12-22T03:41:15.672Z,0.33
2023-12-22T03:42:15.688Z,0.34
2023-12-22T03:43:15.768Z,0.34
2023-12-22T03:44:15.729Z,0.31
2023-12-22T03:45:15.774Z,0.32
2023-12-22T03:46:15.847Z,0.33
2023-12-22T03:47:15.774Z,0.32
2023-12-22T03:48:15.924Z,0.34
2023-12-22T03:49:15.870Z,0.34
2023-12-22T03:50:15.836Z,0.33
2023-12-22T03:51:15.814Z,0.33
2023-12-22T03:52:15.968Z,0.34
2023-12-22T03:53:15.834Z,0.27
2023-12-22T03:54:15.846Z,0.25
2023-12-22T03:55:15.937Z,0.3
2023-12-22T03:56:15.869Z,0.31
2023-12-22T03:57:15.896Z,0.3
2023-12-22T03:58:15.973Z,0.31
2023-12-22T03:59:15.996Z,0.33
2023-12-22T04:00:16.444Z,0.32
2023-12-22T04:01:16.083Z,0.34
2023-12-22T04:02:15.969Z,0.31
2023-12-22T04:03:15.957Z,0.34
2023-12-22T04:04:15.995Z,0.32
2023-12-22T04:05:16.000Z,0.3
2023-12-22T04:06:16.043Z,0.34
2023-12-22T04:07:16.054Z,0.31
2023-12-22T04:08:16.181Z,0.3
2023-12-22T04:09:16.046Z,0.32
2023-12-22T04:10:17.416Z,0.34
2023-12-22T04:11:16.548Z,0.39
2023-12-22T04:12:16.539Z,0.36
2023-12-22T04:13:16.845Z,0.32
2023-12-22T04:14:16.589Z,0.32
2023-12-22T04:15:16.597Z,0.29
2023-12-22T04:16:16.645Z,0.32
2023-12-22T04:17:16.660Z,0.34
2023-12-22T04:18:16.805Z,0.34
2023-12-22T04:19:16.854Z,0.32
2023-12-22T04:20:16.822Z,0.34
2023-12-22T04:21:16.803Z,0.35
2023-12-22T04:22:16.729Z,0.36
2023-12-22T04:23:16.683Z,0.36
2023-12-22T04:24:16.691Z,0.36
2023-12-22T04:25:16.757Z,0.34
2023-12-22T04:26:16.760Z,0.33
2023-12-22T04:27:16.759Z,0.35
2023-12-22T04:28:17.006Z,0.36
2023-12-22T04:29:16.795Z,0.34
2023-12-22T04:30:16.829Z,0.33
2023-12-22T04:31:16.826Z,0.38
2023-12-22T04:32:16.857Z,0.36
2023-12-22T04:33:16.865Z,0.33
2023-12-22T04:34:17.083Z,0.32
2023-12-22T04:35:16.864Z,0.34
2023-12-22T04:36:16.925Z,0.32
2023-12-22T04:37:16.920Z,0.36
2023-12-22T04:38:16.892Z,0.33
2023-12-22T04:39:16.895Z,0.34
2023-12-22T04:40:17.026Z,0.35
2023-12-22T04:41:16.933Z,0.3
2023-12-22T04:42:16.960Z,0.34
2023-12-22T04:43:16.971Z,0.33
2023-12-22T04:44:16.971Z,0.31
2023-12-22T04:45:16.968Z,0.33
2023-12-22T04:46:17.072Z,0.31
2023-12-22T04:47:17.050Z,0.34
2023-12-22T04:48:17.125Z,0.27
2023-12-22T04:49:17.160Z,0.31
2023-12-22T04:50:17.187Z,0.33
2023-12-22T04:51:17.059Z,0.34
2023-12-22T04:52:17.100Z,0.35
2023-12-22T04:53:17.216Z,0.36
2023-12-22T04:54:17.103Z,0.35
2023-12-22T04:55:17.124Z,0.34
2023-12-22T04:56:17.168Z,0.31
2023-12-22T04:57:18.967Z,0.32
2023-12-22T04:58:17.172Z,0.31
2023-12-22T04:59:17.168Z,0.33
2023-12-22T05:00:17.334Z,0.3
2023-12-22T05:01:17.304Z,0.32
2023-12-22T05:02:17.220Z,0.3
2023-12-22T05:03:17.261Z,0.33
2023-12-22T05:04:17.311Z,0.32
2023-12-22T05:05:17.242Z,0.36
2023-12-22T05:06:17.275Z,0.31
2023-12-22T05:07:17.355Z,0.32
2023-12-22T05:08:17.271Z,0.32
2023-12-22T05:09:17.320Z,0.31
2023-12-22T05:10:17.502Z,0.31
2023-12-22T05:11:17.409Z,0.31
2023-12-22T05:12:17.363Z,0.29
2023-12-22T05:13:17.466Z,0.3
2023-12-22T05:14:17.340Z,0.28
2023-12-22T05:15:17.389Z,0.33
2023-12-22T05:16:17.401Z,0.35
2023-12-22T05:17:17.394Z,0.34
2023-12-22T05:18:17.606Z,0.32
2023-12-22T05:19:17.468Z,0.29
2023-12-22T05:20:17.451Z,0.3
2023-12-22T05:21:17.433Z,0.34
2023-12-22T05:22:17.509Z,0.32
2023-12-22T05:23:17.492Z,0.33
2023-12-22T05:24:17.497Z,0.32
2023-12-22T05:25:17.627Z,0.29
2023-12-22T05:26:23.268Z,0.32
2023-12-22T05:27:19.594Z,0.3
2023-12-22T05:28:19.516Z,0.32
2023-12-22T05:29:19.472Z,0.32
2023-12-22T05:30:19.522Z,0.31
2023-12-22T05:31:19.548Z,0.29
2023-12-22T05:32:19.517Z,0.27
2023-12-22T05:33:19.539Z,0.3
2023-12-22T05:34:19.618Z,0.27
2023-12-22T05:35:19.706Z,0.26
2023-12-22T05:36:19.638Z,0.28
2023-12-22T05:37:19.617Z,0.3
2023-12-22T05:38:19.604Z,0.31
2023-12-22T05:39:19.588Z,0.28
2023-12-22T05:40:19.834Z,0.3
2023-12-22T05:41:19.641Z,0.29
2023-12-22T05:42:19.647Z,0.28
2023-12-22T05:43:19.710Z,0.3
2023-12-22T05:44:19.725Z,0.26
2023-12-22T05:45:19.816Z,0.29
2023-12-22T05:46:19.719Z,0.3
2023-12-22T05:47:19.941Z,0.33
2023-12-22T05:48:19.884Z,0.29
2023-12-22T05:49:19.871Z,0.28
2023-12-22T05:50:19.982Z,0.29
2023-12-22T05:51:19.808Z,0.33
2023-12-22T05:52:19.844Z,0.33
2023-12-22T05:53:19.808Z,0.29
2023-12-22T05:54:19.833Z,0.28
2023-12-22T05:55:19.836Z,0.27
2023-12-22T05:56:20.607Z,0.25
2023-12-22T05:57:19.848Z,0.22
2023-12-22T05:58:19.968Z,0.22
2023-12-22T05:59:19.896Z,0.25
2023-12-22T06:00:20.017Z,0.25
2023-12-22T06:01:20.095Z,0.26
2023-12-22T06:02:20.031Z,0.29
2023-12-22T06:03:19.950Z,0.33
2023-12-22T06:04:19.987Z,0.27
2023-12-22T06:05:20.071Z,0.22
2023-12-22T06:06:20.022Z,0.27
2023-12-22T06:07:19.975Z,0.28
2023-12-22T06:08:19.962Z,0.29
2023-12-22T06:09:20.301Z,0.29
2023-12-22T06:10:20.051Z,0.28
2023-12-22T06:11:20.002Z,0.25
2023-12-22T06:12:20.042Z,0.25
2023-12-22T06:13:20.141Z,0.29
2023-12-22T06:14:20.071Z,0.27
2023-12-22T06:15:20.063Z,0.24
2023-12-22T06:16:20.977Z,0.28
2023-12-22T06:17:20.102Z,0.29
2023-12-22T06:18:20.170Z,0.3
2023-12-22T06:19:20.434Z,0.25
2023-12-22T06:20:20.133Z,0.29
2023-12-22T06:21:20.156Z,0.31
2023-12-22T06:22:20.157Z,0.31
2023-12-22T06:23:20.185Z,0.31
2023-12-22T06:24:20.197Z,0.32
2023-12-22T06:25:20.393Z,0.27
2023-12-22T06:26:20.276Z,0.29
2023-12-22T06:27:20.227Z,0.31
2023-12-22T06:28:20.253Z,0.31
2023-12-22T06:29:20.277Z,0.33
2023-12-22T06:30:20.297Z,0.32
2023-12-22T06:31:21.081Z,0.3
2023-12-22T06:32:20.308Z,0.28
2023-12-22T06:33:20.360Z,0.31
2023-12-22T06:34:20.344Z,0.35
2023-12-22T06:35:20.340Z,0.31
2023-12-22T06:36:23.949Z,0.32
2023-12-22T06:37:20.377Z,0.26
2023-12-22T06:38:20.888Z,0.31
2023-12-22T06:39:20.448Z,0.35
2023-12-22T06:40:20.616Z,0.37
2023-12-22T06:41:23.453Z,0.3
2023-12-22T06:42:21.397Z,0.33
2023-12-22T06:43:21.142Z,0.35
2023-12-22T06:44:21.130Z,0.31
2023-12-22T06:45:21.139Z,0.33
2023-12-22T06:46:24.590Z,0.33
2023-12-22T06:47:21.348Z,0.26
2023-12-22T06:48:21.369Z,0.3
2023-12-22T06:49:21.333Z,0.32
2023-12-22T06:50:21.315Z,0.3
2023-12-22T06:51:22.193Z,0.31
2023-12-22T06:52:21.346Z,0.32
2023-12-22T06:53:25.853Z,0.29
2023-12-22T06:54:22.712Z,0.34
2023-12-22T06:55:22.759Z,0.33
2023-12-22T06:56:23.825Z,0.32
2023-12-22T06:57:24.308Z,0.33
2023-12-22T06:58:22.984Z,0.33
2023-12-22T06:59:23.858Z,0.28
2023-12-22T07:00:22.810Z,0.3
2023-12-22T07:01:23.987Z,0.28
2023-12-22T07:02:24.403Z,0.29
2023-12-22T07:03:22.878Z,0.3
2023-12-22T07:05:30.493Z,0.31
2023-12-22T07:06:34.020Z,0.31
2023-12-22T07:07:30.696Z,0.32
2023-12-22T07:08:30.679Z,0.31
2023-12-22T07:09:31.317Z,0.31
2023-12-22T07:10:30.760Z,0.35
2023-12-22T07:11:37.673Z,0.3
2023-12-22T07:12:35.078Z,0.33
2023-12-22T07:13:35.109Z,0.28
2023-12-22T07:14:35.940Z,0.3
2023-12-22T07:15:35.107Z,0.31
2023-12-22T07:16:35.274Z,0.3
2023-12-22T07:17:35.547Z,0.36
2023-12-22T07:18:38.421Z,0.35
2023-12-22T07:19:35.139Z,0.38
2023-12-22T07:20:35.110Z,0.38
2023-12-22T07:21:35.289Z,0.41
2023-12-22T07:22:35.203Z,0.36
2023-12-22T07:23:35.239Z,0.38
2023-12-22T07:24:35.251Z,0.4
2023-12-22T07:25:36.458Z,0.4
2023-12-22T07:26:35.267Z,0.42
2023-12-22T07:27:35.228Z,0.4
2023-12-22T07:28:35.631Z,0.38
2023-12-22T07:29:35.281Z,0.36
2023-12-22T07:30:35.887Z,0.38
2023-12-22T07:31:35.340Z,0.39
2023-12-22T07:32:35.376Z,0.38
2023-12-22T07:33:35.391Z,0.4
2023-12-22T07:34:38.521Z,0.42
2023-12-22T07:35:35.567Z,0.4
2023-12-22T07:36:40.720Z,0.43
2023-12-22T07:37:36.703Z,0.47
2023-12-22T07:38:36.342Z,0.41
2023-12-22T07:39:37.000Z,0.38
2023-12-22T07:40:35.626Z,0.43
2023-12-22T07:41:36.656Z,0.46
2023-12-22T07:42:35.624Z,0.48
2023-12-22T07:43:36.119Z,0.48
2023-12-22T07:44:35.678Z,0.45
2023-12-22T07:45:40.684Z,0.43
2023-12-22T07:46:37.310Z,0.43
2023-12-22T07:47:37.401Z,0.43
2023-12-22T07:48:37.509Z,0.47
2023-12-22T07:49:37.446Z,0.45
2023-12-22T07:50:37.477Z,0.42
2023-12-22T07:51:37.464Z,0.43
2023-12-22T07:52:37.455Z,0.43
2023-12-22T07:53:37.430Z,0.44
2023-12-22T07:54:37.718Z,0.47
2023-12-22T07:55:37.519Z,0.44
2023-12-22T07:56:37.471Z,0.47
2023-12-22T07:57:38.012Z,0.44
2023-12-22T07:58:37.508Z,0.47
2023-12-22T07:59:37.705Z,0.44
2023-12-22T08:00:37.555Z,0.45
2023-12-22T08:01:37.532Z,0.44
2023-12-22T08:02:37.559Z,0.45
2023-12-22T08:03:37.556Z,0.45
2023-12-22T08:04:37.575Z,0.47
2023-12-22T08:05:37.611Z,0.51
2023-12-22T08:06:37.797Z,0.54
2023-12-22T08:07:38.293Z,0.5
2023-12-22T08:08:38.238Z,0.5
2023-12-22T08:09:38.485Z,0.55
2023-12-22T08:10:38.285Z,0.5
2023-12-22T08:11:38.302Z,0.48
2023-12-22T08:12:38.209Z,0.48
2023-12-22T08:13:38.353Z,0.49
2023-12-22T08:14:38.250Z,0.55
2023-12-22T08:15:38.432Z,0.56
2023-12-22T08:16:38.348Z,0.58
2023-12-22T08:17:38.440Z,0.58
2023-12-22T08:18:38.447Z,0.58
2023-12-22T08:19:39.155Z,0.53
2023-12-22T08:20:41.796Z,0.57
2023-12-22T08:21:45.052Z,0.52
2023-12-22T08:22:45.946Z,0.55
2023-12-22T08:23:45.791Z,0.6
2023-12-22T08:24:47.511Z,0.6
2023-12-22T08:25:47.809Z,0.61
2023-12-22T08:26:47.526Z,0.55
2023-12-22T08:27:47.768Z,0.58
2023-12-22T08:28:47.556Z,0.61
2023-12-22T08:29:47.561Z,0.65
2023-12-22T08:30:47.549Z,0.66
2023-12-22T08:31:47.690Z,0.62
2023-12-22T08:32:47.628Z,0.63
2023-12-22T08:33:47.630Z,0.69
2023-12-22T08:34:47.590Z,0.68
2023-12-22T08:35:47.611Z,0.68
2023-12-22T08:36:47.861Z,0.71
2023-12-22T08:37:48.008Z,0.66
2023-12-22T08:38:48.019Z,0.72
2023-12-22T08:39:47.664Z,0.7
2023-12-22T08:40:47.697Z,0.7
2023-12-22T08:41:48.020Z,0.73
2023-12-22T08:42:47.933Z,0.74
2023-12-22T08:43:47.783Z,0.76
2023-12-22T08:44:47.782Z,0.74
2023-12-22T08:45:47.724Z,0.73
2023-12-22T08:46:47.826Z,0.73
2023-12-22T08:47:48.248Z,0.74
2023-12-22T08:48:47.828Z,0.76
2023-12-22T08:49:47.856Z,0.74
2023-12-22T08:50:47.827Z,0.76
2023-12-22T08:51:47.804Z,0.76
2023-12-22T08:52:47.959Z,0.73
2023-12-22T08:53:47.882Z,0.79
2023-12-22T08:54:49.053Z,0.77
2023-12-22T08:55:47.918Z,0.8
2023-12-22T08:56:47.908Z,0.83
2023-12-22T08:57:53.513Z,0.85
2023-12-22T08:58:54.669Z,0.84
2023-12-22T08:59:51.481Z,0.79
2023-12-22T09:00:51.462Z,0.84
2023-12-22T09:01:51.496Z,0.83
2023-12-22T09:02:51.490Z,0.84
2023-12-22T09:03:51.795Z,0.89
2023-12-22T09:04:56.621Z,0.91
2023-12-22T09:05:53.931Z,0.94
2023-12-22T09:06:53.896Z,0.94
2023-12-22T09:07:54.233Z,0.91
2023-12-22T09:08:54.379Z,0.87
2023-12-22T09:09:53.964Z,0.86
2023-12-22T09:10:54.182Z,0.88
2023-12-22T09:11:53.996Z,0.79
2023-12-22T09:12:53.984Z,0.77
2023-12-22T09:13:54.127Z,0.84
2023-12-22T09:14:54.022Z,0.82
2023-12-22T09:15:54.017Z,0.82
2023-12-22T09:16:54.306Z,0.84
2023-12-22T09:17:54.428Z,0.82
2023-12-22T09:18:54.533Z,0.88
2023-12-22T09:19:54.211Z,0.85
2023-12-22T09:20:54.123Z,0.87
2023-12-22T09:21:54.175Z,0.86
2023-12-22T09:22:54.224Z,0.89
2023-12-22T09:23:54.144Z,0.89
2023-12-22T09:24:54.163Z,0.87
2023-12-22T09:25:54.297Z,0.88
2023-12-22T09:26:54.184Z,0.87
2023-12-22T09:27:54.281Z,0.88
2023-12-22T09:28:54.326Z,0.94
2023-12-22T09:29:54.253Z,0.97
2023-12-22T09:30:54.293Z,1.01
2023-12-22T09:31:54.317Z,0.98
2023-12-22T09:32:54.462Z,1
2023-12-22T09:33:54.548Z,0.98
2023-12-22T09:34:54.359Z,1.02
2023-12-22T09:35:54.455Z,1.01
2023-12-22T09:36:54.931Z,0.96
2023-12-22T09:37:54.494Z,1.01
2023-12-22T09:38:54.963Z,0.94
2023-12-22T09:39:54.983Z,0.98
2023-12-22T09:40:55.064Z,0.99
2023-12-22T09:41:55.098Z,1.02
2023-12-22T09:42:58.682Z,1.02
2023-12-22T09:43:57.062Z,0.96
2023-12-22T09:44:56.357Z,0.93
2023-12-22T09:45:56.413Z,0.95
2023-12-22T09:46:56.721Z,0.95
2023-12-22T09:47:56.193Z,0.99
2023-12-22T09:48:55.462Z,0.98
2023-12-22T09:49:55.630Z,0.97
2023-12-22T09:50:55.680Z,0.99
2023-12-22T09:51:57.577Z,0.94
2023-12-22T09:52:55.559Z,0.94
2023-12-22T09:53:57.535Z,0.95
2023-12-22T09:54:56.758Z,1.03
2023-12-22T09:55:56.009Z,1.04
2023-12-22T09:56:55.805Z,1.08
2023-12-22T09:57:57.171Z,1.11
2023-12-22T09:58:57.108Z,1.1
2023-12-22T09:59:56.556Z,1.11
2023-12-22T10:00:55.882Z,1.16
2023-12-22T10:01:56.062Z,1.16
2023-12-22T10:02:55.723Z,1.14
2023-12-22T10:03:55.669Z,1.2
2023-12-22T10:04:55.780Z,1.22
2023-12-22T10:05:55.868Z,1.29
2023-12-22T10:06:58.874Z,1.22
2023-12-22T10:07:56.482Z,1.27
2023-12-22T10:08:56.403Z,1.22
2023-12-22T10:09:56.506Z,1.23
2023-12-22T10:10:56.146Z,1.19
2023-12-22T10:11:55.911Z,1.2
2023-12-22T10:12:56.755Z,1.2
2023-12-22T10:13:56.235Z,1.14
2023-12-22T10:14:55.863Z,1.16
2023-12-22T10:15:56.112Z,1.18
2023-12-22T10:16:55.921Z,1.2
2023-12-22T10:17:55.888Z,1.22
2023-12-22T10:18:55.989Z,1.22
2023-12-22T10:19:55.933Z,1.19
2023-12-22T10:20:55.950Z,1.23
2023-12-22T10:21:55.937Z,1.23
2023-12-22T10:22:55.946Z,1.18
2023-12-22T10:23:55.897Z,1.18
2023-12-22T10:24:56.095Z,1.16
2023-12-22T10:25:58.323Z,1.19
2023-12-22T10:26:57.536Z,1.22
2023-12-22T10:27:56.197Z,1.29
2023-12-22T10:28:56.094Z,1.37
2023-12-22T10:29:56.740Z,1.31
2023-12-22T10:30:56.851Z,1.28
2023-12-22T10:31:56.126Z,1.28
2023-12-22T10:32:56.282Z,1.25
2023-12-22T10:33:56.079Z,1.25
2023-12-22T10:34:56.845Z,1.25
2023-12-22T10:35:56.140Z,1.27
2023-12-22T10:36:56.331Z,1.26
2023-12-22T10:37:56.362Z,1.2
2023-12-22T10:38:56.184Z,1.18
2023-12-22T10:39:56.212Z,1.18
2023-12-22T10:40:56.297Z,1.23
2023-12-22T10:41:57.002Z,1.23
2023-12-22T10:42:56.300Z,1.31
2023-12-22T10:43:56.290Z,1.26
2023-12-22T10:44:57.471Z,1.25
2023-12-22T10:45:56.457Z,1.17
2023-12-22T10:46:59.577Z,1.19
2023-12-22T10:47:56.494Z,1.21
2023-12-22T10:48:57.020Z,1.22
2023-12-22T10:49:56.419Z,1.16
2023-12-22T10:50:56.434Z,1.15
2023-12-22T10:51:56.460Z,1.1
2023-12-22T10:52:56.485Z,1.17
2023-12-22T10:53:57.327Z,1.14
2023-12-22T10:54:58.044Z,1.18
2023-12-22T10:55:57.430Z,1.14
2023-12-22T10:56:59.733Z,1.11
2023-12-22T10:57:56.578Z,1.08
2023-12-22T10:58:57.559Z,1.09
2023-12-22T10:59:58.560Z,1.1
2023-12-22T11:00:58.855Z,1.11
2023-12-22T11:02:02.306Z,1.13
2023-12-22T11:03:01.719Z,1.13
2023-12-22T11:04:02.127Z,1.18
2023-12-22T11:05:03.006Z,1.13
2023-12-22T11:06:03.915Z,1.11
2023-12-22T11:07:03.465Z,1.17
2023-12-22T11:08:02.455Z,1.2
2023-12-22T11:09:00.835Z,1.15
2023-12-22T11:10:03.474Z,1.16
2023-12-22T11:11:05.607Z,1.14
2023-12-22T11:12:02.677Z,1.18
2023-12-22T11:13:03.455Z,1.15
2023-12-22T11:14:02.620Z,1.11
2023-12-22T11:15:05.918Z,1.17
2023-12-22T11:16:02.779Z,1.17
2023-12-22T11:17:03.333Z,1.18
2023-12-22T11:18:02.978Z,1.18
2023-12-22T11:19:03.911Z,1.21
2023-12-22T11:20:04.097Z,1.22
2023-12-22T11:21:06.637Z,1.17
2023-12-22T11:22:04.903Z,1.12
2023-12-22T11:23:04.873Z,1.2
2023-12-22T11:24:04.085Z,1.19
2023-12-22T11:25:03.786Z,1.17
2023-12-22T11:26:05.493Z,1.2
2023-12-22T11:27:03.916Z,1.15
2023-12-22T11:28:04.663Z,1.22
2023-12-22T11:29:03.754Z,1.2
2023-12-22T11:30:05.068Z,1.19
2023-12-22T11:31:03.959Z,1.2
2023-12-22T11:32:05.179Z,1.19
2023-12-22T11:33:05.283Z,1.18
2023-12-22T11:34:11.712Z,1.17
2023-12-22T11:35:06.544Z,1.14
2023-12-22T11:36:09.336Z,1.12
2023-12-22T11:37:08.169Z,1.18
2023-12-22T11:38:08.658Z,1.19
2023-12-22T11:39:07.960Z,1.15
2023-12-22T11:40:08.445Z,1.2
2023-12-22T11:41:10.181Z,1.19
2023-12-22T11:42:12.519Z,1.14
2023-12-22T11:43:09.426Z,1.2
2023-12-22T11:44:09.500Z,1.2
2023-12-22T11:45:12.556Z,1.2
2023-12-22T11:46:09.500Z,1.21
2023-12-22T11:47:10.189Z,1.25
2023-12-22T11:48:09.964Z,1.19
2023-12-22T11:49:09.407Z,1.21
2023-12-22T11:50:10.005Z,1.23
2023-12-22T11:51:18.604Z,1.24
2023-12-22T11:52:13.820Z,1.21
2023-12-22T11:53:23.292Z,1.23
2023-12-22T11:56:20.694Z,1.23
2023-12-22T11:58:34.315Z,1.34
2023-12-22T11:59:26.172Z,1.26
2023-12-22T12:01:27.992Z,1.24
2023-12-22T12:02:27.495Z,1.24
2023-12-22T12:03:27.925Z,1.31
2023-12-22T12:04:27.445Z,1.36
2023-12-22T12:05:28.215Z,1.38
2023-12-22T12:08:30.817Z,1.41
2023-12-22T12:10:41.451Z,1.42
2023-12-22T12:12:37.813Z,1.38
2023-12-22T12:13:42.110Z,1.46
2023-12-22T12:14:44.068Z,1.51
2023-12-22T12:15:42.312Z,1.53
2023-12-22T12:16:41.719Z,1.53
2023-12-22T12:17:42.122Z,1.57
2023-12-22T12:18:41.218Z,1.52
2023-12-22T12:19:41.161Z,1.52
2023-12-22T12:20:40.898Z,1.47
2023-12-22T12:21:41.265Z,1.53
2023-12-22T12:22:43.813Z,1.62
2023-12-22T12:23:41.824Z,1.48
2023-12-22T12:24:41.852Z,1.41
2023-12-22T12:25:41.044Z,1.37
2023-12-22T12:26:40.936Z,1.35
2023-12-22T12:27:40.987Z,1.36
2023-12-22T12:28:45.420Z,1.29
2023-12-22T12:29:42.822Z,1.31
2023-12-22T12:30:42.236Z,1.33
2023-12-22T12:31:42.430Z,1.34
2023-12-22T12:32:44.933Z,1.25
2023-12-22T12:33:42.592Z,1.2
2023-12-22T12:34:45.077Z,1.22
2023-12-22T12:35:45.525Z,1.21
2023-12-22T12:36:43.857Z,1.16
2023-12-22T12:37:45.169Z,1.17
2023-12-22T12:38:54.064Z,1.18
2023-12-22T12:39:47.412Z,1.18
2023-12-22T12:40:46.288Z,1.12
2023-12-22T12:41:48.634Z,1.11
2023-12-22T12:42:46.176Z,1.14
2023-12-22T12:43:45.949Z,1.13
2023-12-22T12:44:46.296Z,1.19
2023-12-22T12:45:45.847Z,1.16
2023-12-22T12:46:46.233Z,1.12
2023-12-22T12:47:55.294Z,1.16
2023-12-22T12:48:47.180Z,1.1
2023-12-22T12:49:47.186Z,1.1
2023-12-22T12:50:47.269Z,1.12
2023-12-22T12:51:48.212Z,1.07
2023-12-22T12:52:47.202Z,1.09
2023-12-22T12:53:47.277Z,1.07
2023-12-22T12:54:47.150Z,1.08
2023-12-22T12:55:47.388Z,1.11
2023-12-22T12:56:47.710Z,1.12
2023-12-22T12:57:50.646Z,1.13
2023-12-22T12:58:47.584Z,1.14
2023-12-22T12:59:50.219Z,1.12
2023-12-22T13:00:47.547Z,1.08
2023-12-22T13:01:48.213Z,1.08
2023-12-22T13:02:47.638Z,1.07
2023-12-22T13:03:53.935Z,1.08
2023-12-22T13:04:50.733Z,1.06
2023-12-22T13:05:50.694Z,1.09
2023-12-22T13:06:51.081Z,1.1
2023-12-22T13:07:50.940Z,1.07
2023-12-22T13:08:51.045Z,1.03
2023-12-22T13:09:50.739Z,1.08
2023-12-22T13:11:00.305Z,1.08
2023-12-22T13:11:52.229Z,1.11
2023-12-22T13:12:52.634Z,1.08
2023-12-22T13:13:53.013Z,1.07
2023-12-22T13:14:52.229Z,1.09
2023-12-22T13:15:52.142Z,1.11
2023-12-22T13:16:53.024Z,1.08
2023-12-22T13:17:52.782Z,1.11
2023-12-22T13:18:52.195Z,1.08
2023-12-22T13:19:52.432Z,1.08
2023-12-22T13:20:52.791Z,1.06
2023-12-22T13:21:52.292Z,1.04
2023-12-22T13:22:52.311Z,0.98
2023-12-22T13:24:57.451Z,0.96
2023-12-22T13:25:58.024Z,0.96
2023-12-22T13:27:00.704Z,0.93
2023-12-22T13:27:57.405Z,0.99
2023-12-22T13:28:58.181Z,0.97
2023-12-22T13:29:57.371Z,0.98
2023-12-22T13:30:57.415Z,0.95
2023-12-22T13:31:57.488Z,0.94
2023-12-22T13:32:57.733Z,0.94
2023-12-22T13:33:57.750Z,0.95
2023-12-22T13:34:57.725Z,0.95
2023-12-22T13:35:58.433Z,0.96
2023-12-22T13:36:57.507Z,0.98
2023-12-22T13:37:57.940Z,0.95